Mill Grove, Indiana
Current Conditions -  °F | °C
As of 6:53 AM on Thursday 18 Dec 2014 (Local Time) from KMIE Reporting Station
Overcast Overcast  
Wind Chill: 26°   Ceiling: 2100
Heat Index: 26°   Visibility: 10mi
Dew Point: 18°   Wind: 0mph
Humidity: 71%   Direction: NA
Pressure: 30.23"   Gusts: NA
Location:  40.4568°N, 85.3505°W
Report Text: KMIE 181153Z 00000KT 10SM OVC021 M03/M08 A3023 RMK AO2 SLP246 T10331078 11033 21039 56011
Loading
Personal Weather Stations






























Interactive Weather Map New forecast layout! Learn more

10-Day Weather Forecast

Advertisements
Track Severe Weather on mobile